sensor_id;sensor_type;location;lat;lon;timestamp;pressure;altitude;pressure_sealevel;temperature;humidity
55576;BME280;41437;45.478;9.116;2022-12-29T00:01:33;100518.50;;;7.28;100.00
55576;BME280;41437;45.478;9.116;2022-12-29T00:04:37;100515.53;;;7.29;100.00
55576;BME280;41437;45.478;9.116;2022-12-29T00:07:39;100506.22;;;7.30;100.00
55576;BME280;41437;45.478;9.116;2022-12-29T00:10:41;100492.75;;;7.29;100.00
55576;BME280;41437;45.478;9.116;2022-12-29T00:13:45;100495.66;;;7.34;100.00
55576;BME280;41437;45.478;9.116;2022-12-29T00:17:05;100489.75;;;7.37;100.00
55576;BME280;41437;45.478;9.116;2022-12-29T00:20:08;100488.44;;;7.40;100.00
55576;BME280;41437;45.478;9.116;2022-12-29T00:23:27;100481.69;;;7.42;100.00
55576;BME280;41437;45.478;9.116;2022-12-29T00:26:47;100468.19;;;7.41;100.00
55576;BME280;41437;45.478;9.116;2022-12-29T00:30:11;100466.91;;;7.43;100.00
55576;BME280;41437;45.478;9.116;2022-12-29T00:33:31;100457.25;;;7.41;100.00
55576;BME280;41437;45.478;9.116;2022-12-29T00:36:52;100470.25;;;7.45;100.00
55576;BME280;41437;45.478;9.116;2022-12-29T00:40:12;100462.03;;;7.45;100.00
55576;BME280;41437;45.478;9.116;2022-12-29T00:43:32;100472.38;;;7.43;100.00
55576;BME280;41437;45.478;9.116;2022-12-29T00:46:51;100460.19;;;7.39;100.00
55576;BME280;41437;45.478;9.116;2022-12-29T00:49:53;100466.13;;;7.36;100.00
55576;BME280;41437;45.478;9.116;2022-12-29T00:52:57;100453.59;;;7.22;100.00
55576;BME280;41437;45.478;9.116;2022-12-29T00:55:59;100470.78;;;7.11;100.00
55576;BME280;41437;45.478;9.116;2022-12-29T00:59:02;100463.78;;;7.15;100.00
55576;BME280;41437;45.478;9.116;2022-12-29T01:02:06;100457.00;;;7.17;100.00
55576;BME280;41437;45.478;9.116;2022-12-29T01:05:09;100460.38;;;7.19;100.00
55576;BME280;41437;45.478;9.116;2022-12-29T01:08:12;100458.50;;;7.13;100.00
55576;BME280;41437;45.478;9.116;2022-12-29T01:11:14;100461.47;;;7.12;100.00
55576;BME280;41437;45.478;9.116;2022-12-29T01:14:15;100461.09;;;7.08;100.00
55576;BME280;41437;45.478;9.116;2022-12-29T01:17:17;100458.31;;;7.15;100.00
55576;BME280;41437;45.478;9.116;2022-12-29T01:20:18;100458.31;;;7.15;100.00
55576;BME280;41437;45.478;9.116;2022-12-29T01:23:22;100466.28;;;7.16;100.00
55576;BME280;41437;45.478;9.116;2022-12-29T01:26:24;100456.84;;;7.12;100.00
55576;BME280;41437;45.478;9.116;2022-12-29T01:29:25;100466.69;;;7.20;100.00
55576;BME280;41437;45.478;9.116;2022-12-29T01:32:27;100463.03;;;7.26;100.00
55576;BME280;41437;45.478;9.116;2022-12-29T01:35:29;100463.19;;;7.31;100.00
55576;BME280;41437;45.478;9.116;2022-12-29T01:38:32;100448.09;;;7.22;100.00
55576;BME280;41437;45.478;9.116;2022-12-29T01:41:34;100464.44;;;7.35;100.00
55576;BME280;41437;45.478;9.116;2022-12-29T01:44:51;100468.75;;;7.24;100.00
55576;BME280;41437;45.478;9.116;2022-12-29T01:47:56;100475.06;;;7.25;100.00
55576;BME280;41437;45.478;9.116;2022-12-29T01:50:59;100470.38;;;7.32;100.00
55576;BME280;41437;45.478;9.116;2022-12-29T01:54:05;100461.66;;;7.17;100.00
55576;BME280;41437;45.478;9.116;2022-12-29T01:57:13;100461.22;;;7.20;100.00
55576;BME280;41437;45.478;9.116;2022-12-29T02:00:18;100465.38;;;7.22;100.00
55576;BME280;41437;45.478;9.116;2022-12-29T02:03:21;100463.88;;;7.26;100.00
55576;BME280;41437;45.478;9.116;2022-12-29T02:06:29;100465.94;;;7.31;100.00
55576;BME280;41437;45.478;9.116;2022-12-29T02:09:35;100457.28;;;7.34;100.00
55576;BME280;41437;45.478;9.116;2022-12-29T02:12:37;100468.63;;;7.38;100.00
55576;BME280;41437;45.478;9.116;2022-12-29T02:15:48;100467.44;;;7.27;100.00
55576;BME280;41437;45.478;9.116;2022-12-29T02:19:03;100455.34;;;7.16;100.00
55576;BME280;41437;45.478;9.116;2022-12-29T02:22:18;100455.09;;;7.18;100.00
55576;BME280;41437;45.478;9.116;2022-12-29T02:25:40;100446.97;;;7.04;100.00
55576;BME280;41437;45.478;9.116;2022-12-29T02:32:36;100452.72;;;6.96;100.00
55576;BME280;41437;45.478;9.116;2022-12-29T02:35:44;100449.22;;;6.89;100.00
55576;BME280;41437;45.478;9.116;2022-12-29T02:38:59;100431.13;;;6.88;100.00
55576;BME280;41437;45.478;9.116;2022-12-29T02:42:08;100423.84;;;7.00;100.00
55576;BME280;41437;45.478;9.116;2022-12-29T02:45:20;100426.75;;;7.05;100.00
55576;BME280;41437;45.478;9.116;2022-12-29T02:48:28;100422.56;;;7.03;100.00
55576;BME280;41437;45.478;9.116;2022-12-29T02:51:35;100413.78;;;6.94;100.00
55576;BME280;41437;45.478;9.116;2022-12-29T02:54:40;100435.41;;;7.02;100.00
55576;BME280;41437;45.478;9.116;2022-12-29T02:57:42;100433.47;;;7.10;100.00
55576;BME280;41437;45.478;9.116;2022-12-29T03:00:54;100425.41;;;7.15;100.00
55576;BME280;41437;45.478;9.116;2022-12-29T03:04:12;100426.03;;;7.17;100.00
55576;BME280;41437;45.478;9.116;2022-12-29T03:07:23;100423.94;;;7.12;100.00
55576;BME280;41437;45.478;9.116;2022-12-29T03:10:37;100405.28;;;7.02;100.00
55576;BME280;41437;45.478;9.116;2022-12-29T03:13:49;100425.41;;;7.15;100.00
55576;BME280;41437;45.478;9.116;2022-12-29T03:17:16;100434.06;;;7.12;100.00
55576;BME280;41437;45.478;9.116;2022-12-29T03:20:25;100430.53;;;7.04;100.00
55576;BME280;41437;45.478;9.116;2022-12-29T03:23:28;100428.59;;;6.87;100.00
55576;BME280;41437;45.478;9.116;2022-12-29T03:26:31;100434.72;;;6.82;100.00
55576;BME280;41437;45.478;9.116;2022-12-29T03:29:35;100423.56;;;6.84;100.00
55576;BME280;41437;45.478;9.116;2022-12-29T03:32:42;100429.50;;;6.74;100.00
55576;BME280;41437;45.478;9.116;2022-12-29T03:35:49;100426.50;;;6.82;100.00
55576;BME280;41437;45.478;9.116;2022-12-29T03:38:58;100428.81;;;6.85;100.00
55576;BME280;41437;45.478;9.116;2022-12-29T03:42:06;100414.47;;;6.83;100.00
55576;BME280;41437;45.478;9.116;2022-12-29T03:45:11;100403.94;;;6.87;100.00
55576;BME280;41437;45.478;9.116;2022-12-29T03:48:13;100397.34;;;6.94;100.00
55576;BME280;41437;45.478;9.116;2022-12-29T03:51:16;100411.59;;;7.03;100.00
55576;BME280;41437;45.478;9.116;2022-12-29T03:54:18;100407.59;;;7.05;100.00
55576;BME280;41437;45.478;9.116;2022-12-29T03:57:20;100406.91;;;7.10;100.00
55576;BME280;41437;45.478;9.116;2022-12-29T04:00:22;100405.16;;;7.16;100.00
55576;BME280;41437;45.478;9.116;2022-12-29T04:03:24;100393.75;;;7.19;100.00
55576;BME280;41437;45.478;9.116;2022-12-29T04:06:27;100406.41;;;7.20;100.00
55576;BME280;41437;45.478;9.116;2022-12-29T04:09:29;100400.97;;;7.13;100.00
55576;BME280;41437;45.478;9.116;2022-12-29T04:12:31;100408.13;;;7.14;100.00
55576;BME280;41437;45.478;9.116;2022-12-29T04:15:33;100404.50;;;6.95;100.00
55576;BME280;41437;45.478;9.116;2022-12-29T04:18:35;100395.94;;;6.85;100.00
55576;BME280;41437;45.478;9.116;2022-12-29T04:21:38;100414.78;;;6.75;100.00
55576;BME280;41437;45.478;9.116;2022-12-29T04:24:41;100401.47;;;6.78;100.00
55576;BME280;41437;45.478;9.116;2022-12-29T04:27:43;100399.13;;;6.82;100.00
55576;BME280;41437;45.478;9.116;2022-12-29T04:30:45;100399.75;;;6.84;100.00
55576;BME280;41437;45.478;9.116;2022-12-29T04:33:47;100399.69;;;6.91;100.00
55576;BME280;41437;45.478;9.116;2022-12-29T04:36:50;100394.16;;;6.97;100.00
55576;BME280;41437;45.478;9.116;2022-12-29T04:39:52;100396.00;;;7.03;100.00
55576;BME280;41437;45.478;9.116;2022-12-29T04:42:54;100382.06;;;7.05;100.00
55576;BME280;41437;45.478;9.116;2022-12-29T04:45:57;100391.50;;;7.09;100.00
55576;BME280;41437;45.478;9.116;2022-12-29T04:48:59;100394.19;;;7.16;100.00
55576;BME280;41437;45.478;9.116;2022-12-29T04:52:09;100399.25;;;7.19;100.00
55576;BME280;41437;45.478;9.116;2022-12-29T04:55:11;100393.13;;;7.17;100.00
55576;BME280;41437;45.478;9.116;2022-12-29T04:58:13;100398.78;;;7.22;100.00
55576;BME280;41437;45.478;9.116;2022-12-29T05:01:15;100404.41;;;7.27;100.00
55576;BME280;41437;45.478;9.116;2022-12-29T05:04:16;100404.88;;;7.24;100.00
55576;BME280;41437;45.478;9.116;2022-12-29T05:07:23;100406.25;;;7.15;100.00
55576;BME280;41437;45.478;9.116;2022-12-29T05:10:25;100413.22;;;7.11;100.00
55576;BME280;41437;45.478;9.116;2022-12-29T05:13:27;100403.34;;;7.10;100.00
55576;BME280;41437;45.478;9.116;2022-12-29T05:16:29;100407.28;;;7.14;100.00
55576;BME280;41437;45.478;9.116;2022-12-29T05:19:30;100409.84;;;7.09;100.00
55576;BME280;41437;45.478;9.116;2022-12-29T05:22:33;100421.88;;;7.08;100.00
55576;BME280;41437;45.478;9.116;2022-12-29T05:25:35;100422.31;;;7.04;100.00
55576;BME280;41437;45.478;9.116;2022-12-29T05:28:37;100410.75;;;7.02;100.00
55576;BME280;41437;45.478;9.116;2022-12-29T05:31:39;100405.88;;;7.04;100.00
55576;BME280;41437;45.478;9.116;2022-12-29T05:34:42;100408.03;;;7.02;100.00
55576;BME280;41437;45.478;9.116;2022-12-29T05:37:49;100399.97;;;7.08;100.00
55576;BME280;41437;45.478;9.116;2022-12-29T05:40:50;100398.69;;;6.85;100.00
55576;BME280;41437;45.478;9.116;2022-12-29T05:43:53;100400.31;;;6.93;100.00
55576;BME280;41437;45.478;9.116;2022-12-29T05:46:55;100399.75;;;6.84;100.00
55576;BME280;41437;45.478;9.116;2022-12-29T05:49:58;100405.50;;;6.76;100.00
55576;BME280;41437;45.478;9.116;2022-12-29T05:53:01;100421.13;;;6.69;100.00
55576;BME280;41437;45.478;9.116;2022-12-29T05:56:03;100412.31;;;6.67;100.00
55576;BME280;41437;45.478;9.116;2022-12-29T05:59:05;100407.44;;;6.69;100.00
55576;BME280;41437;45.478;9.116;2022-12-29T06:02:09;100422.47;;;6.60;100.00
55576;BME280;41437;45.478;9.116;2022-12-29T06:05:11;100407.50;;;6.62;100.00
55576;BME280;41437;45.478;9.116;2022-12-29T06:08:14;100416.88;;;6.41;100.00
55576;BME280;41437;45.478;9.116;2022-12-29T06:11:16;100422.88;;;6.57;100.00
55576;BME280;41437;45.478;9.116;2022-12-29T06:14:19;100406.72;;;6.48;100.00
55576;BME280;41437;45.478;9.116;2022-12-29T06:17:21;100412.84;;;6.44;100.00
55576;BME280;41437;45.478;9.116;2022-12-29T06:20:23;100419.16;;;6.51;100.00
55576;BME280;41437;45.478;9.116;2022-12-29T06:23:27;100418.31;;;6.50;100.00
55576;BME280;41437;45.478;9.116;2022-12-29T06:26:28;100411.75;;;6.51;100.00
55576;BME280;41437;45.478;9.116;2022-12-29T06:29:30;100426.44;;;6.64;100.00
55576;BME280;41437;45.478;9.116;2022-12-29T06:32:32;100417.38;;;6.63;100.00
55576;BME280;41437;45.478;9.116;2022-12-29T06:35:33;100415.66;;;6.69;100.00
55576;BME280;41437;45.478;9.116;2022-12-29T06:38:36;100414.06;;;6.54;100.00
55576;BME280;41437;45.478;9.116;2022-12-29T06:41:38;100420.28;;;6.68;100.00
55576;BME280;41437;45.478;9.116;2022-12-29T06:44:40;100418.13;;;6.77;100.00
55576;BME280;41437;45.478;9.116;2022-12-29T06:47:41;100408.06;;;6.71;100.00
55576;BME280;41437;45.478;9.116;2022-12-29T06:50:43;100403.97;;;6.48;100.00
55576;BME280;41437;45.478;9.116;2022-12-29T06:53:46;100421.22;;;6.55;100.00
55576;BME280;41437;45.478;9.116;2022-12-29T06:56:48;100409.91;;;6.45;100.00
55576;BME280;41437;45.478;9.116;2022-12-29T06:59:50;100417.75;;;6.35;100.00
55576;BME280;41437;45.478;9.116;2022-12-29T07:02:54;100429.09;;;6.45;100.00
55576;BME280;41437;45.478;9.116;2022-12-29T07:05:56;100419.38;;;6.49;100.00
55576;BME280;41437;45.478;9.116;2022-12-29T07:08:59;100417.16;;;6.33;100.00
55576;BME280;41437;45.478;9.116;2022-12-29T07:12:01;100422.19;;;6.36;100.00
55576;BME280;41437;45.478;9.116;2022-12-29T07:15:03;100424.38;;;6.52;100.00
55576;BME280;41437;45.478;9.116;2022-12-29T07:18:06;100418.31;;;6.50;100.00
55576;BME280;41437;45.478;9.116;2022-12-29T07:21:08;100427.34;;;6.51;100.00
55576;BME280;41437;45.478;9.116;2022-12-29T07:24:12;100426.53;;;6.50;100.00
55576;BME280;41437;45.478;9.116;2022-12-29T07:27:13;100425.03;;;6.54;100.00
55576;BME280;41437;45.478;9.116;2022-12-29T07:30:15;100432.41;;;6.47;100.00
55576;BME280;41437;45.478;9.116;2022-12-29T07:33:17;100429.16;;;6.32;100.00
55576;BME280;41437;45.478;9.116;2022-12-29T07:36:19;100425.44;;;6.51;100.00
55576;BME280;41437;45.478;9.116;2022-12-29T07:39:22;100440.97;;;6.64;100.00
55576;BME280;41437;45.478;9.116;2022-12-29T07:42:24;100436.69;;;6.75;100.00
55576;BME280;41437;45.478;9.116;2022-12-29T07:45:26;100442.09;;;6.82;100.00
55576;BME280;41437;45.478;9.116;2022-12-29T07:48:27;100448.00;;;6.85;100.00
55576;BME280;41437;45.478;9.116;2022-12-29T07:51:29;100463.09;;;6.94;100.00
55576;BME280;41437;45.478;9.116;2022-12-29T07:54:33;100462.84;;;6.96;100.00
55576;BME280;41437;45.478;9.116;2022-12-29T07:57:35;100450.34;;;7.07;100.00
55576;BME280;41437;45.478;9.116;2022-12-29T08:00:37;100461.44;;;7.18;100.00
55576;BME280;41437;45.478;9.116;2022-12-29T08:03:39;100456.16;;;7.17;100.00
55576;BME280;41437;45.478;9.116;2022-12-29T08:06:41;100454.81;;;7.26;100.00
55576;BME280;41437;45.478;9.116;2022-12-29T08:09:44;100454.22;;;7.24;100.00
55576;BME280;41437;45.478;9.116;2022-12-29T08:12:46;100461.94;;;7.34;100.00
55576;BME280;41437;45.478;9.116;2022-12-29T08:15:48;100460.31;;;7.26;100.00
55576;BME280;41437;45.478;9.116;2022-12-29T08:18:49;100456.84;;;7.12;100.00
55576;BME280;41437;45.478;9.116;2022-12-29T08:21:52;100459.25;;;7.02;100.00
55576;BME280;41437;45.478;9.116;2022-12-29T08:24:56;100468.03;;;7.11;100.00
55576;BME280;41437;45.478;9.116;2022-12-29T08:27:57;100462.03;;;7.20;100.00
55576;BME280;41437;45.478;9.116;2022-12-29T08:31:00;100453.69;;;7.09;100.00
55576;BME280;41437;45.478;9.116;2022-12-29T08:34:02;100463.44;;;7.04;100.00
55576;BME280;41437;45.478;9.116;2022-12-29T08:37:04;100469.88;;;7.17;100.00
55576;BME280;41437;45.478;9.116;2022-12-29T08:40:09;100470.25;;;7.20;100.00
55576;BME280;41437;45.478;9.116;2022-12-29T08:43:10;100477.75;;;9.09;100.00
55576;BME280;41437;45.478;9.116;2022-12-29T08:46:12;100479.63;;;8.66;100.00
55576;BME280;41437;45.478;9.116;2022-12-29T08:49:14;100478.00;;;8.47;100.00
55576;BME280;41437;45.478;9.116;2022-12-29T08:52:16;100475.44;;;8.15;100.00
55576;BME280;41437;45.478;9.116;2022-12-29T08:55:19;100466.72;;;8.00;100.00
55576;BME280;41437;45.478;9.116;2022-12-29T08:58:21;100470.25;;;8.07;100.00
55576;BME280;41437;45.478;9.116;2022-12-29T09:01:23;100473.44;;;8.04;100.00
55576;BME280;41437;45.478;9.116;2022-12-29T09:04:24;100474.75;;;8.01;100.00
55576;BME280;41437;45.478;9.116;2022-12-29T09:07:28;100468.72;;;8.11;100.00
55576;BME280;41437;45.478;9.116;2022-12-29T09:10:31;100473.38;;;8.11;100.00
55576;BME280;41437;45.478;9.116;2022-12-29T09:13:33;100482.84;;;8.15;100.00
55576;BME280;41437;45.478;9.116;2022-12-29T09:16:35;100483.38;;;8.23;100.00
55576;BME280;41437;45.478;9.116;2022-12-29T09:19:37;100483.66;;;8.34;100.00
55576;BME280;41437;45.478;9.116;2022-12-29T09:22:39;100487.22;;;8.34;100.00
55576;BME280;41437;45.478;9.116;2022-12-29T09:25:42;100480.66;;;8.35;100.00
55576;BME280;41437;45.478;9.116;2022-12-29T09:28:44;100492.47;;;8.36;100.00
55576;BME280;41437;45.478;9.116;2022-12-29T09:31:47;100492.44;;;8.42;100.00
55576;BME280;41437;45.478;9.116;2022-12-29T09:34:49;100483.13;;;8.43;100.00
55576;BME280;41437;45.478;9.116;2022-12-29T09:37:51;100491.06;;;8.51;100.00
55576;BME280;41437;45.478;9.116;2022-12-29T09:40:57;100488.44;;;8.56;100.00
55576;BME280;41437;45.478;9.116;2022-12-29T09:44:07;100485.09;;;8.54;100.00
55576;BME280;41437;45.478;9.116;2022-12-29T09:47:16;100490.75;;;8.60;100.00
55576;BME280;41437;45.478;9.116;2022-12-29T09:50:23;100476.63;;;8.56;100.00
55576;BME280;41437;45.478;9.116;2022-12-29T09:53:30;100480.81;;;8.59;100.00
55576;BME280;41437;45.478;9.116;2022-12-29T09:56:34;100474.38;;;8.65;100.00
55576;BME280;41437;45.478;9.116;2022-12-29T09:59:39;100478.03;;;8.77;100.00
55576;BME280;41437;45.478;9.116;2022-12-29T10:02:43;100481.41;;;8.91;100.00
55576;BME280;41437;45.478;9.116;2022-12-29T10:05:46;100475.66;;;8.92;100.00
55576;BME280;41437;45.478;9.116;2022-12-29T10:08:54;100481.31;;;8.97;100.00
55576;BME280;41437;45.478;9.116;2022-12-29T10:12:09;100473.44;;;9.01;100.00
55576;BME280;41437;45.478;9.116;2022-12-29T10:15:29;100475.63;;;9.11;100.00
55576;BME280;41437;45.478;9.116;2022-12-29T10:18:44;100469.34;;;8.92;100.00
55576;BME280;41437;45.478;9.116;2022-12-29T10:21:59;100465.78;;;9.03;100.00
55576;BME280;41437;45.478;9.116;2022-12-29T10:25:12;100460.53;;;9.01;100.00
55576;BME280;41437;45.478;9.116;2022-12-29T10:28:19;100444.94;;;8.84;100.00
55576;BME280;41437;45.478;9.116;2022-12-29T10:31:23;100449.41;;;8.96;100.00
55576;BME280;41437;45.478;9.116;2022-12-29T10:34:27;100421.91;;;8.85;100.00
55576;BME280;41437;45.478;9.116;2022-12-29T10:37:36;100436.03;;;8.88;100.00
55576;BME280;41437;45.478;9.116;2022-12-29T10:40:43;100432.19;;;8.89;100.00
55576;BME280;41437;45.478;9.116;2022-12-29T10:43:49;100427.78;;;9.00;100.00
55576;BME280;41437;45.478;9.116;2022-12-29T10:46:56;100439.88;;;9.11;100.00
55576;BME280;41437;45.478;9.116;2022-12-29T10:50:00;100444.88;;;9.14;100.00
55576;BME280;41437;45.478;9.116;2022-12-29T10:53:04;100443.25;;;9.24;100.00
55576;BME280;41437;45.478;9.116;2022-12-29T10:56:27;100428.44;;;9.37;100.00
55576;BME280;41437;45.478;9.116;2022-12-29T10:59:33;100432.97;;;9.43;100.00
55576;BME280;41437;45.478;9.116;2022-12-29T11:03:28;100432.13;;;9.43;100.00
55576;BME280;41437;45.478;9.116;2022-12-29T11:06:33;100415.41;;;9.32;100.00
55576;BME280;41437;45.478;9.116;2022-12-29T11:09:36;100430.34;;;9.37;100.00
55576;BME280;41437;45.478;9.116;2022-12-29T11:12:38;100428.16;;;9.27;100.00
55576;BME280;41437;45.478;9.116;2022-12-29T11:15:43;100423.88;;;9.19;100.00
55576;BME280;41437;45.478;9.116;2022-12-29T11:18:46;100423.63;;;9.21;100.00
55576;BME280;41437;45.478;9.116;2022-12-29T11:21:48;100423.03;;;9.19;100.00
55576;BME280;41437;45.478;9.116;2022-12-29T11:24:51;100415.25;;;9.16;100.00
55576;BME280;41437;45.478;9.116;2022-12-29T11:27:59;100422.78;;;9.20;100.00
55576;BME280;41437;45.478;9.116;2022-12-29T11:31:05;100410.47;;;9.11;100.00
55576;BME280;41437;45.478;9.116;2022-12-29T11:34:07;100404.25;;;9.16;100.00
55576;BME280;41437;45.478;9.116;2022-12-29T11:37:12;100398.66;;;9.34;100.00
55576;BME280;41437;45.478;9.116;2022-12-29T11:40:17;100411.94;;;9.37;100.00
55576;BME280;41437;45.478;9.116;2022-12-29T11:43:23;100407.16;;;9.32;100.00
55576;BME280;41437;45.478;9.116;2022-12-29T11:46:32;100398.53;;;9.29;100.00
55576;BME280;41437;45.478;9.116;2022-12-29T11:49:35;100403.56;;;9.32;100.00
55576;BME280;41437;45.478;9.116;2022-12-29T11:52:37;100388.25;;;9.36;100.00
55576;BME280;41437;45.478;9.116;2022-12-29T11:55:39;100388.13;;;9.43;100.00
55576;BME280;41437;45.478;9.116;2022-12-29T11:58:41;100377.13;;;9.43;100.00
55576;BME280;41437;45.478;9.116;2022-12-29T12:01:45;100395.75;;;9.52;100.00
55576;BME280;41437;45.478;9.116;2022-12-29T12:04:47;100392.19;;;9.52;100.00
55576;BME280;41437;45.478;9.116;2022-12-29T12:07:54;100385.47;;;9.48;100.00
55576;BME280;41437;45.478;9.116;2022-12-29T12:11:04;100382.25;;;9.51;100.00
55576;BME280;41437;45.478;9.116;2022-12-29T12:14:17;100382.97;;;9.46;100.00
55576;BME280;41437;45.478;9.116;2022-12-29T12:17:25;100380.97;;;9.42;100.00
55576;BME280;41437;45.478;9.116;2022-12-29T12:20:42;100372.59;;;9.37;100.00
55576;BME280;41437;45.478;9.116;2022-12-29T12:24:11;100368.88;;;9.31;100.00
55576;BME280;41437;45.478;9.116;2022-12-29T12:27:22;100364.66;;;9.40;100.00
55576;BME280;41437;45.478;9.116;2022-12-29T12:30:28;100358.81;;;9.48;100.00
55576;BME280;41437;45.478;9.116;2022-12-29T12:33:36;100356.53;;;9.57;100.00
55576;BME280;41437;45.478;9.116;2022-12-29T12:36:57;100347.22;;;9.58;100.00
55576;BME280;41437;45.478;9.116;2022-12-29T12:40:33;100335.47;;;9.63;100.00
55576;BME280;41437;45.478;9.116;2022-12-29T12:43:41;100338.56;;;9.66;100.00
55576;BME280;41437;45.478;9.116;2022-12-29T12:46:59;100337.63;;;9.61;100.00
55576;BME280;41437;45.478;9.116;2022-12-29T12:50:22;100325.78;;;9.72;100.00
55576;BME280;41437;45.478;9.116;2022-12-29T12:53:41;100334.13;;;9.77;100.00
55576;BME280;41437;45.478;9.116;2022-12-29T12:57:00;100339.28;;;9.73;100.00
55576;BME280;41437;45.478;9.116;2022-12-29T13:00:08;100332.47;;;9.76;100.00
55576;BME280;41437;45.478;9.116;2022-12-29T13:03:15;100325.03;;;9.76;100.00
55576;BME280;41437;45.478;9.116;2022-12-29T13:06:29;100313.28;;;9.81;100.00
55576;BME280;41437;45.478;9.116;2022-12-29T13:09:48;100311.84;;;9.78;100.00
55576;BME280;41437;45.478;9.116;2022-12-29T13:12:56;100308.16;;;9.73;100.00
55576;BME280;41437;45.478;9.116;2022-12-29T13:16:06;100299.47;;;9.64;100.00
55576;BME280;41437;45.478;9.116;2022-12-29T13:19:15;100303.53;;;9.62;100.00
55576;BME280;41437;45.478;9.116;2022-12-29T13:22:26;100314.50;;;9.73;100.00
55576;BME280;41437;45.478;9.116;2022-12-29T13:25:36;100301.56;;;9.74;100.00
55576;BME280;41437;45.478;9.116;2022-12-29T13:28:48;100306.81;;;9.87;100.00
55576;BME280;41437;45.478;9.116;2022-12-29T13:31:56;100298.31;;;9.89;100.00
55576;BME280;41437;45.478;9.116;2022-12-29T13:35:11;100302.97;;;9.88;100.00
55576;BME280;41437;45.478;9.116;2022-12-29T13:38:23;100289.19;;;9.88;100.00
55576;BME280;41437;45.478;9.116;2022-12-29T13:41:30;100280.94;;;9.88;100.00
55576;BME280;41437;45.478;9.116;2022-12-29T13:44:37;100289.81;;;9.90;100.00
55576;BME280;41437;45.478;9.116;2022-12-29T13:47:42;100273.69;;;9.82;100.00
55576;BME280;41437;45.478;9.116;2022-12-29T13:50:51;100266.31;;;9.99;100.00
55576;BME280;41437;45.478;9.116;2022-12-29T13:54:17;100259.34;;;9.80;100.00
55576;BME280;41437;45.478;9.116;2022-12-29T13:57:32;100257.88;;;9.89;100.00
55576;BME280;41437;45.478;9.116;2022-12-29T14:00:44;100264.34;;;9.83;100.00
55576;BME280;41437;45.478;9.116;2022-12-29T14:03:50;100267.34;;;9.81;100.00
55576;BME280;41437;45.478;9.116;2022-12-29T14:07:00;100262.56;;;9.77;100.00
55576;BME280;41437;45.478;9.116;2022-12-29T14:10:04;100272.88;;;9.70;100.00
55576;BME280;41437;45.478;9.116;2022-12-29T14:13:11;100271.22;;;9.69;100.00
55576;BME280;41437;45.478;9.116;2022-12-29T14:16:26;100274.22;;;9.67;100.00
55576;BME280;41437;45.478;9.116;2022-12-29T14:19:29;100262.25;;;9.62;100.00
55576;BME280;41437;45.478;9.116;2022-12-29T14:22:34;100262.50;;;9.60;100.00
55576;BME280;41437;45.478;9.116;2022-12-29T14:25:59;100267.53;;;9.63;100.00
55576;BME280;41437;45.478;9.116;2022-12-29T14:29:44;100262.78;;;9.59;100.00
55576;BME280;41437;45.478;9.116;2022-12-29T14:33:01;100273.41;;;9.55;100.00
55576;BME280;41437;45.478;9.116;2022-12-29T14:36:20;100263.63;;;9.47;100.00
55576;BME280;41437;45.478;9.116;2022-12-29T14:39:32;100254.41;;;9.53;100.00
55576;BME280;41437;45.478;9.116;2022-12-29T14:42:38;100249.00;;;9.59;100.00
55576;BME280;41437;45.478;9.116;2022-12-29T14:45:41;100254.63;;;9.64;100.00
55576;BME280;41437;45.478;9.116;2022-12-29T14:48:44;100260.50;;;9.55;100.00
55576;BME280;41437;45.478;9.116;2022-12-29T14:51:46;100264.72;;;9.46;100.00
55576;BME280;41437;45.478;9.116;2022-12-29T14:54:53;100271.53;;;9.44;100.00
55576;BME280;41437;45.478;9.116;2022-12-29T14:58:00;100276.56;;;9.35;100.00
55576;BME280;41437;45.478;9.116;2022-12-29T15:01:03;100276.94;;;9.27;100.00
55576;BME280;41437;45.478;9.116;2022-12-29T15:04:14;100271.84;;;9.19;100.00
55576;BME280;41437;45.478;9.116;2022-12-29T15:07:18;100278.88;;;9.15;100.00
55576;BME280;41437;45.478;9.116;2022-12-29T15:10:21;100280.44;;;9.11;100.00
55576;BME280;41437;45.478;9.116;2022-12-29T15:13:33;100287.97;;;9.03;100.00
55576;BME280;41437;45.478;9.116;2022-12-29T15:16:35;100292.72;;;8.96;100.00
55576;BME280;41437;45.478;9.116;2022-12-29T15:19:40;100298.84;;;8.98;100.00
55576;BME280;41437;45.478;9.116;2022-12-29T15:22:43;100293.59;;;8.97;100.00
55576;BME280;41437;45.478;9.116;2022-12-29T15:25:47;100295.38;;;8.91;100.00
55576;BME280;41437;45.478;9.116;2022-12-29T15:28:53;100299.56;;;8.82;100.00
55576;BME280;41437;45.478;9.116;2022-12-29T15:32:01;100303.47;;;8.74;100.00
55576;BME280;41437;45.478;9.116;2022-12-29T15:35:30;100300.03;;;8.79;100.00
55576;BME280;41437;45.478;9.116;2022-12-29T15:38:32;100294.53;;;8.79;100.00
55576;BME280;41437;45.478;9.116;2022-12-29T15:41:40;100300.41;;;8.71;100.00
55576;BME280;41437;45.478;9.116;2022-12-29T15:45:03;100298.25;;;8.73;100.00
55576;BME280;41437;45.478;9.116;2022-12-29T15:48:13;100302.78;;;8.67;100.00
55576;BME280;41437;45.478;9.116;2022-12-29T15:51:18;100293.09;;;8.65;100.00
55576;BME280;41437;45.478;9.116;2022-12-29T15:54:23;100308.63;;;8.71;100.00
55576;BME280;41437;45.478;9.116;2022-12-29T15:57:27;100310.31;;;8.72;100.00
55576;BME280;41437;45.478;9.116;2022-12-29T16:00:31;100311.59;;;8.69;100.00
55576;BME280;41437;45.478;9.116;2022-12-29T16:03:34;100320.09;;;8.68;100.00
55576;BME280;41437;45.478;9.116;2022-12-29T16:06:37;100325.59;;;8.68;100.00
55576;BME280;41437;45.478;9.116;2022-12-29T16:09:42;100330.84;;;8.69;100.00
55576;BME280;41437;45.478;9.116;2022-12-29T16:12:44;100327.88;;;8.71;100.00
55576;BME280;41437;45.478;9.116;2022-12-29T16:15:48;100330.75;;;8.76;100.00
55576;BME280;41437;45.478;9.116;2022-12-29T16:18:52;100325.13;;;8.71;100.00